sensor_id;sensor_type;location;lat;lon;timestamp;temperature;humidity
5358;DHT22;2702;51.014;7.170;2022-08-25T00:00:48;24.20;99.90
5358;DHT22;2702;51.014;7.170;2022-08-25T00:03:15;24.20;99.90
5358;DHT22;2702;51.014;7.170;2022-08-25T00:05:41;24.20;99.90
5358;DHT22;2702;51.014;7.170;2022-08-25T00:08:07;24.10;99.90
5358;DHT22;2702;51.014;7.170;2022-08-25T00:10:36;24.10;99.90
5358;DHT22;2702;51.014;7.170;2022-08-25T00:13:03;24.00;99.90
5358;DHT22;2702;51.014;7.170;2022-08-25T00:15:29;24.10;99.90
5358;DHT22;2702;51.014;7.170;2022-08-25T00:17:57;24.10;99.90
5358;DHT22;2702;51.014;7.170;2022-08-25T00:20:25;24.10;99.90
5358;DHT22;2702;51.014;7.170;2022-08-25T00:22:52;24.00;99.90
5358;DHT22;2702;51.014;7.170;2022-08-25T00:25:18;23.90;99.90
5358;DHT22;2702;51.014;7.170;2022-08-25T00:27:44;23.90;99.90
5358;DHT22;2702;51.014;7.170;2022-08-25T00:30:12;23.90;99.90
5358;DHT22;2702;51.014;7.170;2022-08-25T00:32:39;23.80;99.90
5358;DHT22;2702;51.014;7.170;2022-08-25T00:35:05;23.80;99.90
5358;DHT22;2702;51.014;7.170;2022-08-25T00:37:31;23.80;99.90
5358;DHT22;2702;51.014;7.170;2022-08-25T00:39:57;23.70;99.90
5358;DHT22;2702;51.014;7.170;2022-08-25T00:42:24;23.70;99.90
5358;DHT22;2702;51.014;7.170;2022-08-25T00:44:50;23.70;99.90
5358;DHT22;2702;51.014;7.170;2022-08-25T00:47:17;23.70;99.90
5358;DHT22;2702;51.014;7.170;2022-08-25T00:49:49;23.60;99.90
5358;DHT22;2702;51.014;7.170;2022-08-25T00:52:46;23.60;99.90
5358;DHT22;2702;51.014;7.170;2022-08-25T00:55:27;23.60;99.90
5358;DHT22;2702;51.014;7.170;2022-08-25T00:57:57;23.60;99.90
5358;DHT22;2702;51.014;7.170;2022-08-25T01:00:26;23.70;99.90
5358;DHT22;2702;51.014;7.170;2022-08-25T01:02:53;23.70;99.90
5358;DHT22;2702;51.014;7.170;2022-08-25T01:05:21;23.60;99.90
5358;DHT22;2702;51.014;7.170;2022-08-25T01:07:48;23.60;99.90
5358;DHT22;2702;51.014;7.170;2022-08-25T01:10:16;23.60;99.90
5358;DHT22;2702;51.014;7.170;2022-08-25T01:12:43;23.60;99.90
5358;DHT22;2702;51.014;7.170;2022-08-25T01:15:17;23.50;99.90
5358;DHT22;2702;51.014;7.170;2022-08-25T01:17:50;23.50;99.90
5358;DHT22;2702;51.014;7.170;2022-08-25T01:20:19;23.50;99.90
5358;DHT22;2702;51.014;7.170;2022-08-25T01:22:47;23.50;99.90
5358;DHT22;2702;51.014;7.170;2022-08-25T01:25:39;23.50;99.90
5358;DHT22;2702;51.014;7.170;2022-08-25T01:28:08;23.50;99.90
5358;DHT22;2702;51.014;7.170;2022-08-25T01:30:35;23.50;99.90
5358;DHT22;2702;51.014;7.170;2022-08-25T01:33:06;23.50;99.90
5358;DHT22;2702;51.014;7.170;2022-08-25T01:35:34;23.40;99.90
5358;DHT22;2702;51.014;7.170;2022-08-25T01:38:02;23.40;99.90
5358;DHT22;2702;51.014;7.170;2022-08-25T01:40:28;23.40;99.90
5358;DHT22;2702;51.014;7.170;2022-08-25T01:45:28;23.30;99.90
5358;DHT22;2702;51.014;7.170;2022-08-25T01:47:54;23.30;99.90
5358;DHT22;2702;51.014;7.170;2022-08-25T01:50:20;23.20;99.90
5358;DHT22;2702;51.014;7.170;2022-08-25T01:53:02;23.30;99.90
5358;DHT22;2702;51.014;7.170;2022-08-25T01:55:28;23.30;99.90
5358;DHT22;2702;51.014;7.170;2022-08-25T01:57:56;23.20;99.90
5358;DHT22;2702;51.014;7.170;2022-08-25T02:00:23;23.20;99.90
5358;DHT22;2702;51.014;7.170;2022-08-25T02:02:49;23.20;99.90
5358;DHT22;2702;51.014;7.170;2022-08-25T02:05:15;23.10;99.90
5358;DHT22;2702;51.014;7.170;2022-08-25T02:07:42;23.10;99.90
5358;DHT22;2702;51.014;7.170;2022-08-25T02:10:10;23.10;99.90
5358;DHT22;2702;51.014;7.170;2022-08-25T02:12:37;23.10;99.90
5358;DHT22;2702;51.014;7.170;2022-08-25T02:15:07;23.00;99.90
5358;DHT22;2702;51.014;7.170;2022-08-25T02:17:34;23.10;99.90
5358;DHT22;2702;51.014;7.170;2022-08-25T02:20:05;23.10;99.90
5358;DHT22;2702;51.014;7.170;2022-08-25T02:22:32;23.00;99.90
5358;DHT22;2702;51.014;7.170;2022-08-25T02:24:58;23.00;99.90
5358;DHT22;2702;51.014;7.170;2022-08-25T02:27:24;23.00;99.90
5358;DHT22;2702;51.014;7.170;2022-08-25T02:29:50;23.00;99.90
5358;DHT22;2702;51.014;7.170;2022-08-25T02:32:17;22.90;99.90
5358;DHT22;2702;51.014;7.170;2022-08-25T02:34:42;22.90;99.90
5358;DHT22;2702;51.014;7.170;2022-08-25T02:37:08;22.90;99.90
5358;DHT22;2702;51.014;7.170;2022-08-25T02:39:34;22.90;99.90
5358;DHT22;2702;51.014;7.170;2022-08-25T02:42:01;22.80;99.90
5358;DHT22;2702;51.014;7.170;2022-08-25T02:44:27;22.80;99.90
5358;DHT22;2702;51.014;7.170;2022-08-25T02:46:54;22.80;99.90
5358;DHT22;2702;51.014;7.170;2022-08-25T02:49:19;22.70;99.90
5358;DHT22;2702;51.014;7.170;2022-08-25T02:51:45;22.70;99.90
5358;DHT22;2702;51.014;7.170;2022-08-25T02:54:11;22.70;99.90
5358;DHT22;2702;51.014;7.170;2022-08-25T02:56:37;22.70;99.90
5358;DHT22;2702;51.014;7.170;2022-08-25T02:59:03;22.60;99.90
5358;DHT22;2702;51.014;7.170;2022-08-25T03:01:30;22.60;99.90
5358;DHT22;2702;51.014;7.170;2022-08-25T03:03:58;22.60;99.90
5358;DHT22;2702;51.014;7.170;2022-08-25T03:06:25;22.60;99.90
5358;DHT22;2702;51.014;7.170;2022-08-25T03:08:52;22.50;99.90
5358;DHT22;2702;51.014;7.170;2022-08-25T03:11:19;22.40;99.90
5358;DHT22;2702;51.014;7.170;2022-08-25T03:13:45;22.40;99.90
5358;DHT22;2702;51.014;7.170;2022-08-25T03:16:13;22.50;99.90
5358;DHT22;2702;51.014;7.170;2022-08-25T03:18:40;22.40;99.90
5358;DHT22;2702;51.014;7.170;2022-08-25T03:21:08;22.40;99.90
5358;DHT22;2702;51.014;7.170;2022-08-25T03:23:34;22.30;99.90
5358;DHT22;2702;51.014;7.170;2022-08-25T03:26:01;22.30;99.90
5358;DHT22;2702;51.014;7.170;2022-08-25T03:28:45;22.30;99.90
5358;DHT22;2702;51.014;7.170;2022-08-25T03:31:11;22.30;99.90
5358;DHT22;2702;51.014;7.170;2022-08-25T03:33:37;22.30;99.90
5358;DHT22;2702;51.014;7.170;2022-08-25T03:36:05;22.20;99.90
5358;DHT22;2702;51.014;7.170;2022-08-25T03:38:31;22.20;99.90
5358;DHT22;2702;51.014;7.170;2022-08-25T03:40:57;22.20;99.90
5358;DHT22;2702;51.014;7.170;2022-08-25T03:43:23;22.20;99.90
5358;DHT22;2702;51.014;7.170;2022-08-25T03:45:50;22.20;99.90
5358;DHT22;2702;51.014;7.170;2022-08-25T03:48:16;22.20;99.90
5358;DHT22;2702;51.014;7.170;2022-08-25T03:50:51;22.20;99.90
5358;DHT22;2702;51.014;7.170;2022-08-25T03:53:19;22.10;99.90
5358;DHT22;2702;51.014;7.170;2022-08-25T03:55:45;22.00;99.90
5358;DHT22;2702;51.014;7.170;2022-08-25T03:58:12;22.00;99.90
5358;DHT22;2702;51.014;7.170;2022-08-25T04:00:38;22.10;99.90
5358;DHT22;2702;51.014;7.170;2022-08-25T04:03:04;21.90;99.90
5358;DHT22;2702;51.014;7.170;2022-08-25T04:05:30;21.90;99.90
5358;DHT22;2702;51.014;7.170;2022-08-25T04:07:56;21.90;99.90
5358;DHT22;2702;51.014;7.170;2022-08-25T04:10:22;22.00;99.90
5358;DHT22;2702;51.014;7.170;2022-08-25T04:12:48;21.90;99.90
5358;DHT22;2702;51.014;7.170;2022-08-25T04:15:14;21.90;99.90
5358;DHT22;2702;51.014;7.170;2022-08-25T04:17:40;21.80;99.90
5358;DHT22;2702;51.014;7.170;2022-08-25T04:20:07;21.80;99.90
5358;DHT22;2702;51.014;7.170;2022-08-25T04:22:34;21.80;99.90
5358;DHT22;2702;51.014;7.170;2022-08-25T04:25:02;21.70;99.90
5358;DHT22;2702;51.014;7.170;2022-08-25T04:27:28;21.70;99.90
5358;DHT22;2702;51.014;7.170;2022-08-25T04:29:54;21.70;99.90
5358;DHT22;2702;51.014;7.170;2022-08-25T04:32:20;21.70;99.90
5358;DHT22;2702;51.014;7.170;2022-08-25T04:34:45;21.70;99.90
5358;DHT22;2702;51.014;7.170;2022-08-25T04:37:13;21.60;99.90
5358;DHT22;2702;51.014;7.170;2022-08-25T04:39:39;21.60;99.90
5358;DHT22;2702;51.014;7.170;2022-08-25T04:42:05;21.60;99.90
5358;DHT22;2702;51.014;7.170;2022-08-25T04:44:31;21.70;99.90
5358;DHT22;2702;51.014;7.170;2022-08-25T04:46:58;21.70;99.90
5358;DHT22;2702;51.014;7.170;2022-08-25T04:49:24;21.60;99.90
5358;DHT22;2702;51.014;7.170;2022-08-25T04:51:50;21.60;99.90
5358;DHT22;2702;51.014;7.170;2022-08-25T04:54:17;21.60;99.90
5358;DHT22;2702;51.014;7.170;2022-08-25T04:56:48;21.60;99.90
5358;DHT22;2702;51.014;7.170;2022-08-25T04:59:16;21.60;99.90
5358;DHT22;2702;51.014;7.170;2022-08-25T05:01:46;21.60;99.90
5358;DHT22;2702;51.014;7.170;2022-08-25T05:04:14;21.60;99.90
5358;DHT22;2702;51.014;7.170;2022-08-25T05:06:41;21.60;99.90
5358;DHT22;2702;51.014;7.170;2022-08-25T05:09:08;21.60;99.90
5358;DHT22;2702;51.014;7.170;2022-08-25T05:11:35;21.50;99.90
5358;DHT22;2702;51.014;7.170;2022-08-25T05:14:02;21.50;99.90
5358;DHT22;2702;51.014;7.170;2022-08-25T05:16:28;21.50;99.90
5358;DHT22;2702;51.014;7.170;2022-08-25T05:18:55;21.50;99.90
5358;DHT22;2702;51.014;7.170;2022-08-25T05:21:25;21.50;99.90
5358;DHT22;2702;51.014;7.170;2022-08-25T05:23:59;21.50;99.90
5358;DHT22;2702;51.014;7.170;2022-08-25T05:26:28;21.50;99.90
5358;DHT22;2702;51.014;7.170;2022-08-25T05:28:56;21.50;99.90
5358;DHT22;2702;51.014;7.170;2022-08-25T05:31:23;21.60;99.90
5358;DHT22;2702;51.014;7.170;2022-08-25T05:33:51;21.60;99.90
5358;DHT22;2702;51.014;7.170;2022-08-25T05:36:19;21.60;99.90
5358;DHT22;2702;51.014;7.170;2022-08-25T05:38:45;21.60;99.90
5358;DHT22;2702;51.014;7.170;2022-08-25T05:41:15;21.60;99.90
5358;DHT22;2702;51.014;7.170;2022-08-25T05:43:42;21.70;99.90
5358;DHT22;2702;51.014;7.170;2022-08-25T05:46:09;21.70;99.90
5358;DHT22;2702;51.014;7.170;2022-08-25T05:48:35;21.60;99.90
5358;DHT22;2702;51.014;7.170;2022-08-25T05:51:04;21.70;99.90
5358;DHT22;2702;51.014;7.170;2022-08-25T05:53:31;21.70;99.90
5358;DHT22;2702;51.014;7.170;2022-08-25T05:55:58;21.80;99.90
5358;DHT22;2702;51.014;7.170;2022-08-25T05:58:26;21.80;99.90
5358;DHT22;2702;51.014;7.170;2022-08-25T06:00:58;21.80;99.90
5358;DHT22;2702;51.014;7.170;2022-08-25T06:03:48;21.80;99.90
5358;DHT22;2702;51.014;7.170;2022-08-25T06:06:15;21.90;99.90
5358;DHT22;2702;51.014;7.170;2022-08-25T06:08:43;21.90;99.90
5358;DHT22;2702;51.014;7.170;2022-08-25T06:11:10;21.90;99.90
5358;DHT22;2702;51.014;7.170;2022-08-25T06:13:37;22.00;99.90
5358;DHT22;2702;51.014;7.170;2022-08-25T06:16:04;22.00;99.90
5358;DHT22;2702;51.014;7.170;2022-08-25T06:18:29;22.10;99.90
5358;DHT22;2702;51.014;7.170;2022-08-25T06:20:55;22.10;99.90
5358;DHT22;2702;51.014;7.170;2022-08-25T06:23:21;22.20;99.90
5358;DHT22;2702;51.014;7.170;2022-08-25T06:25:52;22.20;99.90
5358;DHT22;2702;51.014;7.170;2022-08-25T06:28:19;22.30;99.90
5358;DHT22;2702;51.014;7.170;2022-08-25T06:30:46;22.30;99.90
5358;DHT22;2702;51.014;7.170;2022-08-25T06:33:12;22.30;99.90
5358;DHT22;2702;51.014;7.170;2022-08-25T06:35:43;22.40;99.90
5358;DHT22;2702;51.014;7.170;2022-08-25T06:38:10;22.50;99.90
5358;DHT22;2702;51.014;7.170;2022-08-25T06:40:37;22.60;99.90
5358;DHT22;2702;51.014;7.170;2022-08-25T06:43:03;22.60;99.90
5358;DHT22;2702;51.014;7.170;2022-08-25T06:45:33;22.80;99.90
5358;DHT22;2702;51.014;7.170;2022-08-25T06:47:59;22.80;99.90
5358;DHT22;2702;51.014;7.170;2022-08-25T06:50:25;22.90;99.90
5358;DHT22;2702;51.014;7.170;2022-08-25T06:52:51;23.00;99.90
5358;DHT22;2702;51.014;7.170;2022-08-25T06:55:17;23.20;99.90
5358;DHT22;2702;51.014;7.170;2022-08-25T06:57:43;23.30;99.90
5358;DHT22;2702;51.014;7.170;2022-08-25T07:00:09;23.50;99.90
5358;DHT22;2702;51.014;7.170;2022-08-25T07:02:36;23.50;99.90
5358;DHT22;2702;51.014;7.170;2022-08-25T07:05:04;23.70;99.90
5358;DHT22;2702;51.014;7.170;2022-08-25T07:07:30;23.80;99.90
5358;DHT22;2702;51.014;7.170;2022-08-25T07:09:56;24.00;99.90
5358;DHT22;2702;51.014;7.170;2022-08-25T07:12:21;24.10;99.90
5358;DHT22;2702;51.014;7.170;2022-08-25T07:14:49;24.10;99.90
5358;DHT22;2702;51.014;7.170;2022-08-25T07:17:15;24.10;99.90
5358;DHT22;2702;51.014;7.170;2022-08-25T07:19:41;24.20;99.90
5358;DHT22;2702;51.014;7.170;2022-08-25T07:22:07;24.40;99.90
5358;DHT22;2702;51.014;7.170;2022-08-25T07:24:33;24.40;99.90
5358;DHT22;2702;51.014;7.170;2022-08-25T07:26:59;24.60;99.90
5358;DHT22;2702;51.014;7.170;2022-08-25T07:29:27;24.70;99.90
5358;DHT22;2702;51.014;7.170;2022-08-25T07:31:54;24.90;99.90
5358;DHT22;2702;51.014;7.170;2022-08-25T07:34:20;25.00;99.90
5358;DHT22;2702;51.014;7.170;2022-08-25T07:37:04;25.10;99.90
5358;DHT22;2702;51.014;7.170;2022-08-25T07:39:31;25.20;99.90
5358;DHT22;2702;51.014;7.170;2022-08-25T07:41:57;25.30;99.90
5358;DHT22;2702;51.014;7.170;2022-08-25T07:44:23;25.50;99.90
5358;DHT22;2702;51.014;7.170;2022-08-25T07:46:50;25.60;99.90
5358;DHT22;2702;51.014;7.170;2022-08-25T07:49:18;25.60;99.90
5358;DHT22;2702;51.014;7.170;2022-08-25T07:51:45;25.80;99.90
5358;DHT22;2702;51.014;7.170;2022-08-25T07:54:11;26.00;99.90
5358;DHT22;2702;51.014;7.170;2022-08-25T07:56:37;26.10;99.90
5358;DHT22;2702;51.014;7.170;2022-08-25T07:59:06;26.20;99.90
5358;DHT22;2702;51.014;7.170;2022-08-25T08:01:32;26.40;99.90
5358;DHT22;2702;51.014;7.170;2022-08-25T08:03:58;26.60;99.90
5358;DHT22;2702;51.014;7.170;2022-08-25T08:06:24;26.70;99.90
5358;DHT22;2702;51.014;7.170;2022-08-25T08:08:52;26.80;99.90
5358;DHT22;2702;51.014;7.170;2022-08-25T08:11:30;26.90;99.90
5358;DHT22;2702;51.014;7.170;2022-08-25T08:14:00;27.00;99.90
5358;DHT22;2702;51.014;7.170;2022-08-25T08:16:28;27.10;99.90
5358;DHT22;2702;51.014;7.170;2022-08-25T08:18:55;27.30;99.90
5358;DHT22;2702;51.014;7.170;2022-08-25T08:21:23;27.40;99.90
5358;DHT22;2702;51.014;7.170;2022-08-25T08:23:51;27.50;99.90
5358;DHT22;2702;51.014;7.170;2022-08-25T08:26:18;27.60;99.90
5358;DHT22;2702;51.014;7.170;2022-08-25T08:28:44;27.70;99.90
5358;DHT22;2702;51.014;7.170;2022-08-25T08:31:11;27.80;99.90
5358;DHT22;2702;51.014;7.170;2022-08-25T08:33:37;27.90;99.90
5358;DHT22;2702;51.014;7.170;2022-08-25T08:36:07;28.00;99.90
5358;DHT22;2702;51.014;7.170;2022-08-25T08:38:35;28.10;99.90
5358;DHT22;2702;51.014;7.170;2022-08-25T08:41:13;28.10;99.90
5358;DHT22;2702;51.014;7.170;2022-08-25T08:44:14;28.30;99.90
5358;DHT22;2702;51.014;7.170;2022-08-25T08:47:02;28.30;99.90
5358;DHT22;2702;51.014;7.170;2022-08-25T08:53:06;28.60;99.90
5358;DHT22;2702;51.014;7.170;2022-08-25T08:55:42;28.70;99.90
5358;DHT22;2702;51.014;7.170;2022-08-25T08:58:27;28.80;99.90
5358;DHT22;2702;51.014;7.170;2022-08-25T09:00:56;28.70;99.90
5358;DHT22;2702;51.014;7.170;2022-08-25T09:03:40;28.80;99.90
5358;DHT22;2702;51.014;7.170;2022-08-25T09:06:19;28.80;99.90
5358;DHT22;2702;51.014;7.170;2022-08-25T09:08:47;28.90;99.90
5358;DHT22;2702;51.014;7.170;2022-08-25T09:11:36;29.00;99.90
5358;DHT22;2702;51.014;7.170;2022-08-25T09:24:54;29.60;99.90
5358;DHT22;2702;51.014;7.170;2022-08-25T09:30:16;29.70;99.90
5358;DHT22;2702;51.014;7.170;2022-08-25T09:32:51;29.80;99.90
5358;DHT22;2702;51.014;7.170;2022-08-25T09:35:32;29.90;99.90
5358;DHT22;2702;51.014;7.170;2022-08-25T09:38:02;30.10;99.90
5358;DHT22;2702;51.014;7.170;2022-08-25T09:40:31;30.20;99.90
5358;DHT22;2702;51.014;7.170;2022-08-25T09:43:00;30.20;99.90
5358;DHT22;2702;51.014;7.170;2022-08-25T09:45:41;30.20;99.90
5358;DHT22;2702;51.014;7.170;2022-08-25T09:48:28;30.30;99.90
5358;DHT22;2702;51.014;7.170;2022-08-25T09:51:01;30.40;99.90
5358;DHT22;2702;51.014;7.170;2022-08-25T09:53:34;30.60;99.90
5358;DHT22;2702;51.014;7.170;2022-08-25T09:56:03;30.60;99.90
5358;DHT22;2702;51.014;7.170;2022-08-25T09:58:31;30.60;99.90
5358;DHT22;2702;51.014;7.170;2022-08-25T10:01:23;30.60;99.90
5358;DHT22;2702;51.014;7.170;2022-08-25T10:03:58;30.70;99.90
5358;DHT22;2702;51.014;7.170;2022-08-25T10:06:36;30.70;99.90
5358;DHT22;2702;51.014;7.170;2022-08-25T10:09:09;30.80;99.90
5358;DHT22;2702;51.014;7.170;2022-08-25T10:11:46;31.00;99.90
5358;DHT22;2702;51.014;7.170;2022-08-25T10:14:18;31.20;99.90
5358;DHT22;2702;51.014;7.170;2022-08-25T10:16:46;31.30;99.90
5358;DHT22;2702;51.014;7.170;2022-08-25T10:19:29;31.40;99.90
5358;DHT22;2702;51.014;7.170;2022-08-25T10:22:22;31.40;99.90
5358;DHT22;2702;51.014;7.170;2022-08-25T10:24:52;31.60;99.90
5358;DHT22;2702;51.014;7.170;2022-08-25T10:27:51;31.70;99.90
5358;DHT22;2702;51.014;7.170;2022-08-25T10:38:40;32.00;99.90
5358;DHT22;2702;51.014;7.170;2022-08-25T10:41:18;32.00;99.90
5358;DHT22;2702;51.014;7.170;2022-08-25T10:50:37;32.50;99.90
5358;DHT22;2702;51.014;7.170;2022-08-25T10:58:58;32.50;99.90
5358;DHT22;2702;51.014;7.170;2022-08-25T11:01:41;32.80;99.90
5358;DHT22;2702;51.014;7.170;2022-08-25T11:04:23;33.00;99.90
5358;DHT22;2702;51.014;7.170;2022-08-25T11:06:59;33.00;99.90
5358;DHT22;2702;51.014;7.170;2022-08-25T11:09:33;33.00;99.90
5358;DHT22;2702;51.014;7.170;2022-08-25T11:14:40;33.20;99.90
5358;DHT22;2702;51.014;7.170;2022-08-25T11:17:17;33.30;99.90
5358;DHT22;2702;51.014;7.170;2022-08-25T11:19:48;33.50;99.90
5358;DHT22;2702;51.014;7.170;2022-08-25T11:25:12;33.50;99.90
5358;DHT22;2702;51.014;7.170;2022-08-25T11:28:29;33.50;99.90
5358;DHT22;2702;51.014;7.170;2022-08-25T11:30:35;33.60;99.90
5358;DHT22;2702;51.014;7.170;2022-08-25T11:33:03;33.70;99.90
5358;DHT22;2702;51.014;7.170;2022-08-25T11:35:34;33.90;99.90
5358;DHT22;2702;51.014;7.170;2022-08-25T11:38:39;33.70;99.90
5358;DHT22;2702;51.014;7.170;2022-08-25T11:44:06;33.60;99.90
5358;DHT22;2702;51.014;7.170;2022-08-25T11:46:50;33.60;99.90
5358;DHT22;2702;51.014;7.170;2022-08-25T11:49:44;33.70;99.90
5358;DHT22;2702;51.014;7.170;2022-08-25T11:58:12;34.20;99.90
5358;DHT22;2702;51.014;7.170;2022-08-25T12:00:42;34.10;99.90
5358;DHT22;2702;51.014;7.170;2022-08-25T12:06:20;34.10;99.90
5358;DHT22;2702;51.014;7.170;2022-08-25T12:19:49;34.30;99.90
5358;DHT22;2702;51.014;7.170;2022-08-25T12:25:12;34.50;99.90
5358;DHT22;2702;51.014;7.170;2022-08-25T12:28:28;34.60;99.90
5358;DHT22;2702;51.014;7.170;2022-08-25T12:30:59;34.90;99.90
5358;DHT22;2702;51.014;7.170;2022-08-25T12:36:06;34.90;99.90
5358;DHT22;2702;51.014;7.170;2022-08-25T12:38:43;34.70;99.90
5358;DHT22;2702;51.014;7.170;2022-08-25T12:41:11;34.50;99.90
5358;DHT22;2702;51.014;7.170;2022-08-25T12:43:44;34.40;99.90
5358;DHT22;2702;51.014;7.170;2022-08-25T12:51:52;34.30;99.90
5358;DHT22;2702;51.014;7.170;2022-08-25T12:56:58;34.50;99.90
5358;DHT22;2702;51.014;7.170;2022-08-25T12:59:38;34.40;99.90
5358;DHT22;2702;51.014;7.170;2022-08-25T13:10:47;34.60;99.90
5358;DHT22;2702;51.014;7.170;2022-08-25T13:16:03;34.60;99.90
5358;DHT22;2702;51.014;7.170;2022-08-25T13:18:37;34.70;99.90
5358;DHT22;2702;51.014;7.170;2022-08-25T13:21:20;34.60;99.90
5358;DHT22;2702;51.014;7.170;2022-08-25T13:23:50;34.60;99.90
5358;DHT22;2702;51.014;7.170;2022-08-25T13:26:29;34.40;99.90
5358;DHT22;2702;51.014;7.170;2022-08-25T13:31:34;34.40;99.90
5358;DHT22;2702;51.014;7.170;2022-08-25T13:34:07;34.60;99.90
5358;DHT22;2702;51.014;7.170;2022-08-25T13:36:42;34.60;99.90
5358;DHT22;2702;51.014;7.170;2022-08-25T13:39:27;34.60;99.90
5358;DHT22;2702;51.014;7.170;2022-08-25T13:41:56;34.80;99.90
5358;DHT22;2702;51.014;7.170;2022-08-25T13:44:25;34.90;99.90
5358;DHT22;2702;51.014;7.170;2022-08-25T13:47:13;34.80;99.90
5358;DHT22;2702;51.014;7.170;2022-08-25T13:49:45;34.80;99.90
5358;DHT22;2702;51.014;7.170;2022-08-25T13:52:25;34.90;99.90
5358;DHT22;2702;51.014;7.170;2022-08-25T13:54:56;35.10;99.90
5358;DHT22;2702;51.014;7.170;2022-08-25T13:57:24;35.10;99.90
5358;DHT22;2702;51.014;7.170;2022-08-25T14:00:06;35.30;99.90
5358;DHT22;2702;51.014;7.170;2022-08-25T14:05:06;34.90;99.90
5358;DHT22;2702;51.014;7.170;2022-08-25T14:07:33;34.90;99.90
5358;DHT22;2702;51.014;7.170;2022-08-25T14:10:10;35.00;99.90
5358;DHT22;2702;51.014;7.170;2022-08-25T14:15:33;35.10;99.90
5358;DHT22;2702;51.014;7.170;2022-08-25T14:18:13;35.20;99.90
5358;DHT22;2702;51.014;7.170;2022-08-25T14:20:46;35.10;99.90
5358;DHT22;2702;51.014;7.170;2022-08-25T14:23:23;35.20;99.90
5358;DHT22;2702;51.014;7.170;2022-08-25T14:25:53;35.20;99.90
5358;DHT22;2702;51.014;7.170;2022-08-25T14:28:25;35.10;99.90
5358;DHT22;2702;51.014;7.170;2022-08-25T14:31:08;35.20;99.90
5358;DHT22;2702;51.014;7.170;2022-08-25T14:33:42;35.20;99.90
5358;DHT22;2702;51.014;7.170;2022-08-25T14:36:12;35.10;99.90
5358;DHT22;2702;51.014;7.170;2022-08-25T14:38:38;34.90;99.90
5358;DHT22;2702;51.014;7.170;2022-08-25T14:41:05;34.80;99.90
5358;DHT22;2702;51.014;7.170;2022-08-25T14:43:32;34.60;99.90
5358;DHT22;2702;51.014;7.170;2022-08-25T14:46:00;34.60;99.90
5358;DHT22;2702;51.014;7.170;2022-08-25T14:48:34;34.40;99.90
5358;DHT22;2702;51.014;7.170;2022-08-25T14:51:04;34.40;99.90
5358;DHT22;2702;51.014;7.170;2022-08-25T14:53:32;34.20;99.90
5358;DHT22;2702;51.014;7.170;2022-08-25T14:55:58;34.20;99.90
5358;DHT22;2702;51.014;7.170;2022-08-25T14:58:24;34.30;99.90
5358;DHT22;2702;51.014;7.170;2022-08-25T15:00:50;34.50;99.90
5358;DHT22;2702;51.014;7.170;2022-08-25T15:03:24;34.70;99.90
5358;DHT22;2702;51.014;7.170;2022-08-25T15:05:52;34.60;99.90
5358;DHT22;2702;51.014;7.170;2022-08-25T15:08:18;34.60;99.90
5358;DHT22;2702;51.014;7.170;2022-08-25T15:11:02;34.60;99.90
5358;DHT22;2702;51.014;7.170;2022-08-25T15:13:28;34.40;99.90
5358;DHT22;2702;51.014;7.170;2022-08-25T15:15:54;34.20;99.90
5358;DHT22;2702;51.014;7.170;2022-08-25T15:18:20;33.90;99.90
5358;DHT22;2702;51.014;7.170;2022-08-25T15:20:47;34.00;99.90
5358;DHT22;2702;51.014;7.170;2022-08-25T15:23:13;34.00;99.90
5358;DHT22;2702;51.014;7.170;2022-08-25T15:25:40;34.10;99.90
5358;DHT22;2702;51.014;7.170;2022-08-25T15:28:07;34.30;99.90
5358;DHT22;2702;51.014;7.170;2022-08-25T15:30:34;34.40;99.90
5358;DHT22;2702;51.014;7.170;2022-08-25T15:33:00;34.50;99.90
5358;DHT22;2702;51.014;7.170;2022-08-25T15:35:26;34.60;99.90
5358;DHT22;2702;51.014;7.170;2022-08-25T15:37:52;34.70;99.90
5358;DHT22;2702;51.014;7.170;2022-08-25T15:40:18;34.90;99.90
5358;DHT22;2702;51.014;7.170;2022-08-25T15:42:44;35.00;99.90
5358;DHT22;2702;51.014;7.170;2022-08-25T15:45:11;35.10;99.90
5358;DHT22;2702;51.014;7.170;2022-08-25T15:47:38;35.10;99.90
5358;DHT22;2702;51.014;7.170;2022-08-25T15:50:12;35.10;99.90
5358;DHT22;2702;51.014;7.170;2022-08-25T15:52:42;35.10;99.90
5358;DHT22;2702;51.014;7.170;2022-08-25T15:55:09;35.10;99.90
5358;DHT22;2702;51.014;7.170;2022-08-25T15:57:36;35.00;99.90
5358;DHT22;2702;51.014;7.170;2022-08-25T16:00:05;35.00;99.90
5358;DHT22;2702;51.014;7.170;2022-08-25T16:02:31;35.00;99.90
5358;DHT22;2702;51.014;7.170;2022-08-25T16:04:59;35.00;99.90
5358;DHT22;2702;51.014;7.170;2022-08-25T16:07:27;34.90;99.90
5358;DHT22;2702;51.014;7.170;2022-08-25T16:09:56;34.90;99.90
5358;DHT22;2702;51.014;7.170;2022-08-25T16:12:23;34.90;99.90
5358;DHT22;2702;51.014;7.170;2022-08-25T16:14:49;35.00;99.90
5358;DHT22;2702;51.014;7.170;2022-08-25T16:17:15;35.00;99.90
5358;DHT22;2702;51.014;7.170;2022-08-25T16:19:41;35.00;99.90
5358;DHT22;2702;51.014;7.170;2022-08-25T16:22:07;35.10;99.90
5358;DHT22;2702;51.014;7.170;2022-08-25T16:24:33;35.10;99.90
5358;DHT22;2702;51.014;7.170;2022-08-25T16:26:59;35.20;99.90
5358;DHT22;2702;51.014;7.170;2022-08-25T16:29:35;35.30;99.90
5358;DHT22;2702;51.014;7.170;2022-08-25T16:32:04;35.20;99.90
5358;DHT22;2702;51.014;7.170;2022-08-25T16:34:30;35.30;99.90
5358;DHT22;2702;51.014;7.170;2022-08-25T16:36:57;35.20;99.90
5358;DHT22;2702;51.014;7.170;2022-08-25T16:39:23;35.20;99.90
5358;DHT22;2702;51.014;7.170;2022-08-25T16:41:50;35.20;99.90
5358;DHT22;2702;51.014;7.170;2022-08-25T16:44:17;35.10;99.90
5358;DHT22;2702;51.014;7.170;2022-08-25T16:46:43;35.00;99.90
5358;DHT22;2702;51.014;7.170;2022-08-25T16:49:11;34.90;99.90
5358;DHT22;2702;51.014;7.170;2022-08-25T16:51:39;34.70;99.90
5358;DHT22;2702;51.014;7.170;2022-08-25T16:54:10;34.60;99.90
5358;DHT22;2702;51.014;7.170;2022-08-25T16:56:55;34.60;99.90
5358;DHT22;2702;51.014;7.170;2022-08-25T16:59:25;34.60;99.90
5358;DHT22;2702;51.014;7.170;2022-08-25T17:01:52;34.60;99.90
5358;DHT22;2702;51.014;7.170;2022-08-25T17:04:19;34.60;99.90
5358;DHT22;2702;51.014;7.170;2022-08-25T17:06:45;34.70;99.90
5358;DHT22;2702;51.014;7.170;2022-08-25T17:09:12;34.70;99.90
5358;DHT22;2702;51.014;7.170;2022-08-25T17:11:44;34.70;99.90
5358;DHT22;2702;51.014;7.170;2022-08-25T17:14:16;34.80;99.90
5358;DHT22;2702;51.014;7.170;2022-08-25T17:16:43;34.70;99.90
5358;DHT22;2702;51.014;7.170;2022-08-25T17:19:11;34.60;99.90
5358;DHT22;2702;51.014;7.170;2022-08-25T17:21:42;34.60;99.90
5358;DHT22;2702;51.014;7.170;2022-08-25T17:24:10;34.50;99.90
5358;DHT22;2702;51.014;7.170;2022-08-25T17:26:38;34.50;99.90
5358;DHT22;2702;51.014;7.170;2022-08-25T17:29:05;34.40;99.90
5358;DHT22;2702;51.014;7.170;2022-08-25T17:31:32;34.30;99.90
5358;DHT22;2702;51.014;7.170;2022-08-25T17:34:01;34.40;99.90
5358;DHT22;2702;51.014;7.170;2022-08-25T17:36:27;34.20;99.90
5358;DHT22;2702;51.014;7.170;2022-08-25T17:38:54;34.10;99.90
5358;DHT22;2702;51.014;7.170;2022-08-25T17:41:20;34.00;99.90
5358;DHT22;2702;51.014;7.170;2022-08-25T17:43:46;33.90;99.90
5358;DHT22;2702;51.014;7.170;2022-08-25T17:46:13;33.80;99.90
5358;DHT22;2702;51.014;7.170;2022-08-25T17:48:39;33.60;99.90
5358;DHT22;2702;51.014;7.170;2022-08-25T17:51:06;33.50;99.90
5358;DHT22;2702;51.014;7.170;2022-08-25T17:53:34;33.40;99.90
5358;DHT22;2702;51.014;7.170;2022-08-25T17:56:09;33.30;99.90
5358;DHT22;2702;51.014;7.170;2022-08-25T17:58:36;33.20;99.90
5358;DHT22;2702;51.014;7.170;2022-08-25T18:01:04;33.10;99.90